Time;durP1;ratioP1;P1;durP2;ratioP2;P2;SDS_P1;SDS_P2;PMS_P1;PMS_P2;Temp;Humidity;BMP_temperature;BMP_pressure;BME280_temperature;BME280_humidity;BME280_pressure;Samples;Min_cycle;Max_cycle;Signal;HPM_P1;HPM_P2
2023/03/31 00:00:15;;;;;;;;;;;15.90;87.10;;;;;;4143788;28;20016;-65
2023/03/31 00:02:57;;;;;;;;;;;15.90;87.10;;;;;;4141514;28;19936;-65
2023/03/31 00:05:38;;;;;;;;;;;15.90;87.20;;;;;;4112027;28;19956;-65
2023/03/31 00:08:20;;;;;;;;;;;15.80;87.10;;;;;;4111534;28;19933;-65
2023/03/31 00:11:01;;;;;;;;;;;15.80;87.10;;;;;;4127394;28;20277;-65
2023/03/31 00:13:41;;;;;;;;;;;15.80;87.20;;;;;;4126760;28;19928;-67
2023/03/31 00:16:23;;;;;;;;;;;15.90;87.20;;;;;;4126905;28;20363;-65
2023/03/31 00:19:16;;;;;;;;;;;15.80;87.20;;;;;;4128251;28;19979;-65
2023/03/31 00:22:00;;;;;;;;;;;15.80;87.20;;;;;;4127543;28;19932;-66
2023/03/31 00:24:41;;;;;;;;;;;15.80;88.10;;;;;;4127537;28;20065;-65
2023/03/31 00:27:22;;;;;;;;;;;15.80;87.20;;;;;;4111570;28;19945;-66
2023/03/31 00:30:02;;;;;;;;;;;15.80;87.20;;;;;;4122057;28;20436;-67
2023/03/31 00:32:44;;;;;;;;;;;15.80;88.20;;;;;;4142423;28;20387;-65
2023/03/31 00:35:28;;;;;;;;;;;15.80;87.30;;;;;;4146170;28;19936;-66
2023/03/31 00:38:14;;;;;;;;;;;15.80;87.40;;;;;;4126933;28;20435;-66
2023/03/31 00:40:57;;;;;;;;;;;15.80;87.40;;;;;;4126984;28;19933;-67
2023/03/31 00:43:38;;;;;;;;;;;15.90;87.40;;;;;;4134361;28;19928;-67
2023/03/31 00:46:19;;;;;;;;;;;15.90;88.00;;;;;;4126445;28;19945;-64
2023/03/31 00:49:02;;;;;;;;;;;15.90;87.10;;;;;;4121303;28;19948;-64
2023/03/31 00:51:43;;;;;;;;;;;15.90;87.00;;;;;;4144735;28;19931;-64
2023/03/31 00:54:26;;;;;;;;;;;16.00;86.90;;;;;;4131323;28;19931;-64
2023/03/31 00:57:07;;;;;;;;;;;16.00;86.90;;;;;;4126712;28;19933;-64
2023/03/31 00:59:49;;;;;;;;;;;16.00;86.90;;;;;;4126048;28;20015;-63
2023/03/31 01:02:30;;;;;;;;;;;16.00;87.00;;;;;;4130747;28;19976;-64
2023/03/31 01:05:12;;;;;;;;;;;16.10;86.80;;;;;;4126507;28;20574;-64
2023/03/31 01:07:54;;;;;;;;;;;16.20;86.40;;;;;;4135301;28;19949;-64
2023/03/31 01:10:40;;;;;;;;;;;16.30;86.00;;;;;;4135800;28;19932;-64
2023/03/31 01:13:21;;;;;;;;;;;16.40;85.70;;;;;;4127284;28;20064;-64
2023/03/31 01:16:02;;;;;;;;;;;16.40;85.40;;;;;;4125800;28;19932;-64
2023/03/31 01:18:45;;;;;;;;;;;16.40;85.30;;;;;;4126700;28;19928;-64
2023/03/31 01:21:55;;;;;;;;;;;16.40;85.20;;;;;;4136096;28;19932;-64
2023/03/31 01:24:50;;;;;;;;;;;16.40;85.20;;;;;;4141722;28;20015;-64
2023/03/31 01:27:41;;;;;;;;;;;16.40;85.20;;;;;;4135149;28;20058;-64
2023/03/31 01:30:36;;;;;;;;;;;16.40;85.30;;;;;;4131558;28;20400;-64
2023/03/31 01:33:25;;;;;;;;;;;16.30;85.30;;;;;;4129703;28;20019;-64
2023/03/31 01:36:20;;;;;;;;;;;16.40;85.30;;;;;;4129096;28;19932;-64
2023/03/31 01:39:09;;;;;;;;;;;16.40;85.10;;;;;;4129170;28;19947;-64
2023/03/31 01:41:57;;;;;;;;;;;16.40;85.00;;;;;;4131112;28;19932;-64
2023/03/31 01:44:41;;;;;;;;;;;16.50;85.00;;;;;;4145062;28;20540;-65
2023/03/31 01:47:26;;;;;;;;;;;16.40;84.90;;;;;;4131466;28;19932;-65
2023/03/31 01:50:10;;;;;;;;;;;16.50;84.90;;;;;;4131519;28;20097;-65
2023/03/31 01:52:56;;;;;;;;;;;16.40;84.80;;;;;;4130987;28;19947;-65
2023/03/31 01:55:38;;;;;;;;;;;16.50;84.70;;;;;;4143723;28;20391;-65
2023/03/31 01:58:23;;;;;;;;;;;16.50;84.60;;;;;;4160648;28;20391;-65
2023/03/31 02:01:07;;;;;;;;;;;16.50;85.40;;;;;;4148038;28;20064;-65
2023/03/31 02:03:51;;;;;;;;;;;16.50;84.50;;;;;;4145429;28;19932;-65
2023/03/31 02:06:34;;;;;;;;;;;16.50;84.60;;;;;;4145726;28;20303;-65
2023/03/31 02:09:16;;;;;;;;;;;16.40;84.60;;;;;;4143044;28;19929;-65
2023/03/31 02:11:58;;;;;;;;;;;16.40;84.70;;;;;;4113904;28;19932;-65
2023/03/31 02:14:43;;;;;;;;;;;16.40;84.90;;;;;;4128352;28;19933;-65
2023/03/31 02:17:29;;;;;;;;;;;16.40;84.70;;;;;;4113801;28;19928;-65
2023/03/31 02:20:11;;;;;;;;;;;16.50;84.70;;;;;;4119037;28;19929;-64
2023/03/31 02:22:54;;;;;;;;;;;16.50;84.40;;;;;;4133793;28;20806;-64
2023/03/31 02:25:36;;;;;;;;;;;16.50;84.40;;;;;;4132195;28;19984;-65
2023/03/31 02:28:18;;;;;;;;;;;16.60;84.30;;;;;;4145523;28;20391;-64
2023/03/31 02:31:06;;;;;;;;;;;16.50;85.10;;;;;;4142283;28;19929;-65
2023/03/31 02:33:47;;;;;;;;;;;16.50;84.30;;;;;;4144125;28;19927;-66
2023/03/31 02:36:28;;;;;;;;;;;16.50;84.30;;;;;;4143003;28;20063;-66
2023/03/31 02:39:11;;;;;;;;;;;16.40;84.30;;;;;;4145873;28;20427;-66
2023/03/31 02:41:52;;;;;;;;;;;16.40;84.50;;;;;;4129973;28;19931;-65
2023/03/31 02:44:33;;;;;;;;;;;16.40;84.50;;;;;;4146549;28;19997;-65
2023/03/31 02:47:17;;;;;;;;;;;16.40;84.70;;;;;;4142848;28;20300;-65
2023/03/31 02:50:03;;;;;;;;;;;16.30;84.90;;;;;;4102164;28;20092;-65
2023/03/31 02:52:49;;;;;;;;;;;16.40;84.90;;;;;;4125038;28;20723;-66
2023/03/31 02:55:51;;;;;;;;;;;16.40;84.80;;;;;;4127198;28;19975;-65
2023/03/31 02:58:40;;;;;;;;;;;16.40;84.60;;;;;;4152177;28;20275;-65
2023/03/31 03:01:27;;;;;;;;;;;16.40;84.60;;;;;;4141114;28;19931;-65
2023/03/31 03:04:17;;;;;;;;;;;16.40;84.60;;;;;;4143673;28;19967;-65
2023/03/31 03:07:02;;;;;;;;;;;16.40;84.70;;;;;;4142098;28;19976;-66
2023/03/31 03:09:49;;;;;;;;;;;16.50;84.70;;;;;;4157039;28;19928;-66
2023/03/31 03:12:36;;;;;;;;;;;16.50;84.60;;;;;;4109956;28;19933;-65
2023/03/31 03:15:20;;;;;;;;;;;16.50;85.30;;;;;;4129502;28;20400;-65
2023/03/31 03:18:05;;;;;;;;;;;16.50;84.40;;;;;;4114818;28;20296;-65
2023/03/31 03:20:49;;;;;;;;;;;16.50;84.40;;;;;;4133099;28;20007;-65
2023/03/31 03:23:31;;;;;;;;;;;16.60;84.20;;;;;;4127747;28;19932;-65
2023/03/31 03:26:12;;;;;;;;;;;16.60;84.10;;;;;;4142786;28;20307;-65
2023/03/31 03:28:58;;;;;;;;;;;16.60;84.00;;;;;;4138112;28;19995;-65
2023/03/31 03:31:42;;;;;;;;;;;16.60;83.90;;;;;;4144361;28;19936;-65
2023/03/31 03:34:24;;;;;;;;;;;16.60;84.00;;;;;;4120924;28;19948;-64
2023/03/31 03:36:49;;;;;;;;;;;16.50;84.00;;;;;;4207530;27;19965;-67
2023/03/31 03:39:30;;;;;;;;;;;16.50;84.00;;;;;;4190099;28;20459;-66
2023/03/31 03:42:10;;;;;;;;;;;16.50;84.10;;;;;;4166132;28;19932;-66
2023/03/31 03:44:51;;;;;;;;;;;16.50;84.10;;;;;;4173802;28;19936;-66
2023/03/31 03:47:32;;;;;;;;;;;16.50;84.10;;;;;;4173289;28;20316;-67
2023/03/31 03:50:14;;;;;;;;;;;16.50;84.30;;;;;;4173512;28;20335;-66
2023/03/31 03:53:04;;;;;;;;;;;16.50;84.30;;;;;;4188203;28;20062;-65
2023/03/31 03:55:47;;;;;;;;;;;16.60;84.20;;;;;;4189785;28;20090;-66
2023/03/31 03:58:30;;;;;;;;;;;16.60;84.00;;;;;;4190298;28;20022;-66
2023/03/31 04:01:10;;;;;;;;;;;16.60;83.90;;;;;;4190246;28;20394;-66
2023/03/31 04:03:51;;;;;;;;;;;16.60;84.00;;;;;;4179975;28;19977;-65
2023/03/31 04:06:32;;;;;;;;;;;16.60;84.00;;;;;;4195248;28;19990;-65
2023/03/31 04:09:19;;;;;;;;;;;16.60;83.90;;;;;;4188726;28;19936;-65
2023/03/31 04:12:02;;;;;;;;;;;16.60;83.90;;;;;;4181701;28;19930;-65
2023/03/31 04:14:43;;;;;;;;;;;16.60;83.80;;;;;;4189294;28;20304;-65
2023/03/31 04:17:31;;;;;;;;;;;16.60;83.80;;;;;;4188362;28;19932;-65
2023/03/31 04:20:12;;;;;;;;;;;16.60;83.70;;;;;;4189357;28;20062;-65
2023/03/31 04:22:58;;;;;;;;;;;16.60;83.80;;;;;;4181472;28;19932;-65
2023/03/31 04:25:45;;;;;;;;;;;16.60;83.80;;;;;;4185368;28;20391;-65
2023/03/31 04:28:33;;;;;;;;;;;16.50;83.80;;;;;;4175674;28;20041;-66
2023/03/31 04:31:23;;;;;;;;;;;16.50;83.90;;;;;;4188812;28;19971;-66
2023/03/31 04:34:05;;;;;;;;;;;16.50;84.00;;;;;;4172480;28;20036;-67
2023/03/31 04:36:47;;;;;;;;;;;16.40;85.00;;;;;;4172613;28;19932;-67
2023/03/31 04:39:29;;;;;;;;;;;16.40;84.20;;;;;;4174215;28;19932;-67
2023/03/31 04:42:11;;;;;;;;;;;16.40;84.40;;;;;;4195114;28;20402;-66
2023/03/31 04:44:52;;;;;;;;;;;16.40;85.50;;;;;;4205920;28;20010;-66
2023/03/31 04:47:33;;;;;;;;;;;16.40;84.70;;;;;;4196817;28;20066;-66
2023/03/31 04:50:14;;;;;;;;;;;16.50;84.40;;;;;;4190523;28;19954;-66
2023/03/31 04:52:56;;;;;;;;;;;16.50;84.10;;;;;;4177733;28;20331;-66
2023/03/31 04:55:36;;;;;;;;;;;16.60;83.90;;;;;;4178299;28;19966;-66
2023/03/31 04:58:18;;;;;;;;;;;16.60;83.70;;;;;;4160506;28;20391;-66
2023/03/31 05:00:59;;;;;;;;;;;16.60;84.50;;;;;;4180154;28;19932;-66
2023/03/31 05:03:40;;;;;;;;;;;16.60;83.50;;;;;;4194428;28;20299;-66
2023/03/31 05:06:20;;;;;;;;;;;16.60;83.60;;;;;;4194809;28;20013;-66
2023/03/31 05:09:01;;;;;;;;;;;16.60;83.60;;;;;;4194639;28;19949;-65
2023/03/31 05:11:41;;;;;;;;;;;16.50;83.60;;;;;;4193577;28;19947;-65
2023/03/31 05:14:24;;;;;;;;;;;16.60;83.90;;;;;;4172923;28;20000;-66
2023/03/31 05:17:04;;;;;;;;;;;16.60;83.90;;;;;;4177503;28;19931;-66
2023/03/31 05:19:45;;;;;;;;;;;16.60;84.70;;;;;;4177448;28;19931;-66
2023/03/31 05:22:25;;;;;;;;;;;16.60;83.80;;;;;;4177761;28;19935;-65
2023/03/31 05:25:07;;;;;;;;;;;16.60;83.70;;;;;;4177479;28;19996;-66
2023/03/31 05:27:49;;;;;;;;;;;16.60;83.60;;;;;;4194553;28;20021;-65
2023/03/31 05:30:31;;;;;;;;;;;16.60;83.70;;;;;;4187345;28;19935;-66
2023/03/31 05:33:13;;;;;;;;;;;16.60;83.60;;;;;;4180727;28;20017;-66
2023/03/31 05:35:54;;;;;;;;;;;16.60;84.70;;;;;;4175739;28;20296;-65
2023/03/31 05:38:35;;;;;;;;;;;16.60;84.10;;;;;;4144472;28;19935;-65
2023/03/31 05:41:15;;;;;;;;;;;16.60;84.10;;;;;;4144734;28;20450;-64
2023/03/31 05:43:56;;;;;;;;;;;16.60;83.90;;;;;;4144630;28;20011;-65
2023/03/31 05:46:38;;;;;;;;;;;16.60;83.90;;;;;;4167254;28;20725;-65
2023/03/31 05:49:19;;;;;;;;;;;16.60;83.90;;;;;;4160385;28;19936;-65
2023/03/31 05:52:00;;;;;;;;;;;16.70;84.80;;;;;;4174131;28;19932;-66
2023/03/31 05:54:41;;;;;;;;;;;16.60;83.80;;;;;;4182644;28;19936;-66
2023/03/31 05:57:22;;;;;;;;;;;16.60;83.70;;;;;;4177048;28;20386;-66
2023/03/31 06:00:04;;;;;;;;;;;16.70;83.70;;;;;;4159415;28;19932;-65
2023/03/31 06:02:46;;;;;;;;;;;16.60;83.60;;;;;;4180074;28;20292;-66
2023/03/31 06:05:29;;;;;;;;;;;16.60;83.60;;;;;;4174450;28;20419;-66
2023/03/31 06:08:10;;;;;;;;;;;16.60;84.40;;;;;;4160491;28;19936;-64
2023/03/31 06:10:51;;;;;;;;;;;16.60;83.80;;;;;;4161566;28;19932;-66
2023/03/31 06:13:32;;;;;;;;;;;16.60;83.90;;;;;;4177700;28;19931;-63
2023/03/31 06:16:13;;;;;;;;;;;16.50;84.90;;;;;;4176952;28;19947;-65
2023/03/31 06:18:55;;;;;;;;;;;16.50;84.20;;;;;;4176739;28;19932;-65
2023/03/31 06:21:35;;;;;;;;;;;16.50;84.30;;;;;;4183451;28;19936;-66
2023/03/31 06:24:16;;;;;;;;;;;16.40;84.40;;;;;;4183972;28;20307;-65
2023/03/31 06:26:57;;;;;;;;;;;16.40;84.50;;;;;;4163880;28;19932;-65
2023/03/31 06:29:38;;;;;;;;;;;16.40;84.60;;;;;;4176662;28;19935;-64
2023/03/31 06:32:18;;;;;;;;;;;16.30;84.70;;;;;;4175733;28;19932;-64
2023/03/31 06:35:00;;;;;;;;;;;16.30;84.70;;;;;;4163068;28;19935;-64
2023/03/31 06:37:41;;;;;;;;;;;16.30;84.90;;;;;;4176587;28;20391;-65
2023/03/31 06:40:21;;;;;;;;;;;16.30;85.00;;;;;;4176512;28;19992;-64
2023/03/31 06:43:02;;;;;;;;;;;16.20;85.80;;;;;;4176717;28;20282;-65
2023/03/31 06:45:42;;;;;;;;;;;16.20;85.10;;;;;;4175228;28;19939;-65
2023/03/31 06:48:24;;;;;;;;;;;16.10;85.10;;;;;;4192894;28;20624;-64
2023/03/31 06:51:06;;;;;;;;;;;16.10;85.20;;;;;;4159901;28;19960;-65
2023/03/31 06:53:47;;;;;;;;;;;16.10;85.30;;;;;;4177289;28;19932;-64
2023/03/31 06:56:27;;;;;;;;;;;16.10;85.40;;;;;;4192305;28;19930;-64
2023/03/31 06:59:08;;;;;;;;;;;16.10;85.40;;;;;;4176018;28;20029;-65
2023/03/31 07:01:49;;;;;;;;;;;16.00;85.50;;;;;;4182248;28;19931;-65
2023/03/31 07:04:30;;;;;;;;;;;16.00;85.50;;;;;;4188094;28;20286;-64
2023/03/31 07:07:12;;;;;;;;;;;16.00;85.70;;;;;;4191715;28;20026;-66
2023/03/31 07:09:52;;;;;;;;;;;16.00;85.80;;;;;;4192373;28;20002;-65
2023/03/31 07:12:36;;;;;;;;;;;16.10;85.70;;;;;;4177048;28;20287;-65
2023/03/31 07:15:17;;;;;;;;;;;16.10;85.40;;;;;;4202973;28;19935;-63
2023/03/31 07:18:00;;;;;;;;;;;16.20;85.20;;;;;;4192426;28;19935;-64
2023/03/31 07:20:42;;;;;;;;;;;16.20;85.20;;;;;;4176467;28;19932;-65
2023/03/31 07:23:24;;;;;;;;;;;16.30;85.20;;;;;;4174554;28;19936;-66
2023/03/31 07:26:05;;;;;;;;;;;16.30;85.20;;;;;;4165780;28;20074;-65
2023/03/31 07:28:46;;;;;;;;;;;16.40;85.10;;;;;;4175621;28;20063;-65
2023/03/31 07:31:26;;;;;;;;;;;16.40;84.90;;;;;;4161375;28;20059;-66
2023/03/31 07:34:07;;;;;;;;;;;16.50;85.60;;;;;;4178823;28;19939;-65
2023/03/31 07:36:48;;;;;;;;;;;16.50;84.50;;;;;;4173460;28;20034;-65
2023/03/31 07:39:30;;;;;;;;;;;16.40;84.40;;;;;;4159246;28;20039;-64
2023/03/31 07:42:10;;;;;;;;;;;16.50;84.40;;;;;;4159809;28;19932;-64
2023/03/31 07:44:51;;;;;;;;;;;16.40;84.20;;;;;;4163460;28;20392;-66
2023/03/31 07:47:31;;;;;;;;;;;16.40;84.20;;;;;;4168815;28;19932;-65
2023/03/31 07:50:12;;;;;;;;;;;16.50;84.30;;;;;;4176022;28;20039;-62
2023/03/31 07:52:53;;;;;;;;;;;16.50;84.30;;;;;;4175160;28;19936;-62
2023/03/31 07:55:35;;;;;;;;;;;16.40;84.30;;;;;;4188139;28;19936;-63
2023/03/31 07:58:16;;;;;;;;;;;16.40;84.50;;;;;;4173179;28;19931;-63
2023/03/31 08:00:56;;;;;;;;;;;16.30;84.50;;;;;;4159297;28;19987;-63
2023/03/31 08:03:37;;;;;;;;;;;16.30;84.60;;;;;;4159753;28;20022;-62
2023/03/31 08:06:19;;;;;;;;;;;16.20;84.70;;;;;;4165320;28;19935;-63
2023/03/31 08:08:59;;;;;;;;;;;16.30;84.90;;;;;;4176440;28;19935;-62
2023/03/31 08:11:42;;;;;;;;;;;16.20;84.90;;;;;;4191219;28;19931;-62
2023/03/31 08:14:23;;;;;;;;;;;16.20;85.10;;;;;;4192259;28;19934;-62
2023/03/31 08:17:17;;;;;;;;;;;16.20;85.20;;;;;;4191986;28;19931;-63
2023/03/31 08:19:58;;;;;;;;;;;16.10;85.30;;;;;;4189545;28;19940;-62
2023/03/31 08:22:43;;;;;;;;;;;16.10;85.50;;;;;;4183270;28;19930;-62
2023/03/31 08:25:23;;;;;;;;;;;16.10;86.50;;;;;;4193946;28;19982;-62
2023/03/31 08:28:09;;;;;;;;;;;16.00;85.60;;;;;;4162311;28;19936;-62
2023/03/31 08:30:50;;;;;;;;;;;16.00;85.80;;;;;;4162288;28;19932;-62
2023/03/31 08:33:31;;;;;;;;;;;16.00;85.90;;;;;;4162276;28;20399;-62
2023/03/31 08:36:12;;;;;;;;;;;16.00;86.10;;;;;;4172541;28;19936;-63
2023/03/31 08:38:53;;;;;;;;;;;16.00;86.20;;;;;;4178379;28;19932;-63
2023/03/31 08:41:37;;;;;;;;;;;15.90;86.40;;;;;;4178571;28;20026;-62
2023/03/31 08:44:21;;;;;;;;;;;15.90;86.70;;;;;;4178455;28;20387;-62
2023/03/31 08:47:03;;;;;;;;;;;15.90;87.80;;;;;;4178430;28;20022;-62
2023/03/31 08:49:45;;;;;;;;;;;15.90;87.00;;;;;;4178414;28;20014;-64
2023/03/31 08:52:29;;;;;;;;;;;15.90;87.10;;;;;;4176527;28;19974;-62
2023/03/31 08:55:12;;;;;;;;;;;15.90;87.30;;;;;;4188753;28;19931;-63
2023/03/31 08:57:56;;;;;;;;;;;15.80;87.40;;;;;;4194875;28;20452;-62
2023/03/31 09:00:40;;;;;;;;;;;15.80;87.80;;;;;;4177635;28;19935;-62
2023/03/31 09:03:25;;;;;;;;;;;15.80;87.80;;;;;;4177572;28;19932;-63
2023/03/31 09:06:07;;;;;;;;;;;15.80;88.00;;;;;;4177794;28;19936;-63
2023/03/31 09:08:47;;;;;;;;;;;15.80;88.00;;;;;;4182934;28;19951;-63
2023/03/31 09:11:31;;;;;;;;;;;15.70;88.10;;;;;;4161019;28;19948;-63
2023/03/31 09:14:19;;;;;;;;;;;15.70;88.20;;;;;;4159785;28;19935;-64
2023/03/31 09:17:10;;;;;;;;;;;15.70;88.20;;;;;;4175195;28;19936;-63
2023/03/31 09:19:55;;;;;;;;;;;15.70;88.30;;;;;;4161840;28;19935;-63
2023/03/31 09:22:43;;;;;;;;;;;15.70;88.20;;;;;;4172725;28;19959;-63
2023/03/31 09:25:26;;;;;;;;;;;15.70;88.30;;;;;;4146118;28;19932;-63
2023/03/31 09:28:14;;;;;;;;;;;15.70;88.30;;;;;;4161806;28;20071;-63
2023/03/31 09:30:55;;;;;;;;;;;15.70;88.20;;;;;;4164818;28;20288;-64
2023/03/31 09:33:40;;;;;;;;;;;15.80;88.20;;;;;;4160693;28;19936;-63
2023/03/31 09:36:22;;;;;;;;;;;15.90;88.00;;;;;;4174198;28;19931;-66
2023/03/31 09:39:03;;;;;;;;;;;15.90;87.70;;;;;;4149062;28;20021;-64
2023/03/31 09:41:46;;;;;;;;;;;16.00;87.50;;;;;;4180344;28;20399;-65
2023/03/31 09:44:31;;;;;;;;;;;16.00;87.30;;;;;;4168199;28;19935;-66
2023/03/31 09:47:14;;;;;;;;;;;16.10;87.90;;;;;;4159587;28;19936;-66
2023/03/31 09:49:57;;;;;;;;;;;16.10;86.80;;;;;;4194069;28;20062;-66
2023/03/31 09:52:40;;;;;;;;;;;16.10;87.60;;;;;;4191235;28;19943;-65
2023/03/31 09:55:22;;;;;;;;;;;16.10;86.70;;;;;;4187000;28;20009;-66
2023/03/31 09:58:19;;;;;;;;;;;16.10;86.60;;;;;;4187870;28;20374;-65
2023/03/31 10:01:01;;;;;;;;;;;16.10;86.60;;;;;;4193269;28;19952;-65
2023/03/31 10:03:45;;;;;;;;;;;16.10;86.60;;;;;;4193741;28;19932;-66
2023/03/31 10:06:28;;;;;;;;;;;16.10;86.60;;;;;;4175911;28;19936;-66
2023/03/31 10:09:10;;;;;;;;;;;16.10;86.50;;;;;;4176687;28;19932;-63
2023/03/31 10:11:52;;;;;;;;;;;16.10;86.50;;;;;;4176729;28;20050;-65
2023/03/31 10:14:38;;;;;;;;;;;16.10;87.30;;;;;;4175888;28;19936;-65
2023/03/31 10:17:20;;;;;;;;;;;16.10;86.40;;;;;;4193804;28;19931;-65
2023/03/31 10:20:06;;;;;;;;;;;16.10;87.20;;;;;;4193477;28;20394;-65
2023/03/31 10:22:48;;;;;;;;;;;16.10;86.40;;;;;;4186347;28;20474;-65
2023/03/31 10:25:29;;;;;;;;;;;16.10;87.30;;;;;;4177944;28;20292;-66
2023/03/31 10:28:11;;;;;;;;;;;16.10;86.50;;;;;;4180206;28;19931;-65
2023/03/31 10:30:53;;;;;;;;;;;16.10;86.50;;;;;;4175593;28;19932;-65
2023/03/31 10:33:40;;;;;;;;;;;16.10;86.50;;;;;;4163136;28;20398;-66
2023/03/31 10:36:22;;;;;;;;;;;16.10;86.50;;;;;;4171827;28;19931;-66
2023/03/31 10:39:09;;;;;;;;;;;16.10;86.50;;;;;;4179293;28;19932;-65
2023/03/31 10:41:53;;;;;;;;;;;16.10;86.60;;;;;;4185094;28;19992;-65
2023/03/31 10:44:36;;;;;;;;;;;16.10;86.60;;;;;;4190568;28;20398;-66
2023/03/31 10:47:19;;;;;;;;;;;16.10;86.70;;;;;;4191718;28;19931;-67
2023/03/31 10:49:59;;;;;;;;;;;16.10;86.80;;;;;;4182284;28;20296;-68
2023/03/31 10:52:43;;;;;;;;;;;16.10;86.90;;;;;;4176089;28;19974;-68
2023/03/31 10:55:29;;;;;;;;;;;16.00;86.90;;;;;;4176636;28;19931;-67
2023/03/31 10:58:16;;;;;;;;;;;16.00;87.00;;;;;;4177897;28;20379;-67
2023/03/31 11:01:02;;;;;;;;;;;16.00;87.00;;;;;;4179207;28;19936;-67
2023/03/31 11:04:08;;;;;;;;;;;16.00;87.10;;;;;;4175816;28;19970;-67
2023/03/31 11:06:52;;;;;;;;;;;16.00;87.20;;;;;;4162726;28;19939;-67
2023/03/31 11:09:39;;;;;;;;;;;16.00;87.20;;;;;;4164775;28;19940;-67
2023/03/31 11:12:25;;;;;;;;;;;16.00;87.20;;;;;;4179200;28;19931;-64
2023/03/31 11:15:11;;;;;;;;;;;16.00;87.00;;;;;;4173698;28;19932;-67
2023/03/31 11:18:06;;;;;;;;;;;16.00;88.00;;;;;;4192242;28;19935;-68
2023/03/31 11:20:51;;;;;;;;;;;16.00;87.10;;;;;;4192138;28;20287;-68
2023/03/31 11:23:39;;;;;;;;;;;16.10;87.10;;;;;;4185896;28;20421;-68
2023/03/31 11:26:22;;;;;;;;;;;16.00;87.10;;;;;;4160892;28;19982;-67
2023/03/31 11:29:15;;;;;;;;;;;16.00;87.10;;;;;;4162872;28;19945;-67
2023/03/31 11:31:59;;;;;;;;;;;16.00;87.10;;;;;;4170846;28;19936;-66
2023/03/31 11:34:44;;;;;;;;;;;16.00;87.30;;;;;;4174721;28;20000;-66
2023/03/31 11:37:34;;;;;;;;;;;16.00;87.40;;;;;;4169935;28;20383;-66
2023/03/31 11:40:22;;;;;;;;;;;16.00;87.50;;;;;;4176196;28;20051;-66
2023/03/31 11:43:05;;;;;;;;;;;16.00;87.40;;;;;;4174816;28;20415;-65
2023/03/31 11:45:50;;;;;;;;;;;16.00;87.50;;;;;;4180225;28;19940;-65
2023/03/31 11:48:35;;;;;;;;;;;16.00;87.50;;;;;;4192228;28;19934;-65
2023/03/31 11:51:18;;;;;;;;;;;16.10;87.50;;;;;;4190557;28;19935;-66
2023/03/31 11:54:00;;;;;;;;;;;16.10;87.60;;;;;;4189895;28;20066;-66
2023/03/31 11:56:41;;;;;;;;;;;16.10;87.50;;;;;;4174500;28;19931;-66
2023/03/31 11:59:22;;;;;;;;;;;16.00;87.40;;;;;;4178898;28;19932;-66
2023/03/31 12:02:11;;;;;;;;;;;16.10;88.30;;;;;;4178768;28;19931;-63
2023/03/31 12:04:54;;;;;;;;;;;16.10;87.30;;;;;;4154514;28;20434;-66
2023/03/31 12:07:39;;;;;;;;;;;16.10;87.40;;;;;;4159896;28;19936;-66
2023/03/31 12:10:21;;;;;;;;;;;16.20;87.30;;;;;;4162466;28;19932;-66
2023/03/31 12:13:07;;;;;;;;;;;16.20;87.20;;;;;;4176567;28;19931;-66
2023/03/31 12:15:54;;;;;;;;;;;16.20;87.10;;;;;;4176985;28;19935;-66
2023/03/31 12:18:37;;;;;;;;;;;16.20;87.10;;;;;;4182708;28;20015;-66
2023/03/31 12:21:19;;;;;;;;;;;16.20;87.00;;;;;;4187521;28;19936;-66
2023/03/31 12:24:01;;;;;;;;;;;16.20;87.00;;;;;;4194389;28;20427;-66
2023/03/31 12:26:48;;;;;;;;;;;16.20;87.00;;;;;;4192914;28;19931;-65
2023/03/31 12:29:30;;;;;;;;;;;16.10;87.10;;;;;;4178635;28;20291;-67
2023/03/31 12:32:13;;;;;;;;;;;16.10;87.20;;;;;;4161959;28;19979;-67
2023/03/31 12:34:58;;;;;;;;;;;16.20;87.20;;;;;;4161906;28;19937;-67
2023/03/31 12:37:56;;;;;;;;;;;16.20;87.10;;;;;;4162063;28;19967;-67
2023/03/31 12:40:42;;;;;;;;;;;16.20;87.10;;;;;;4159163;28;20280;-67
2023/03/31 12:43:29;;;;;;;;;;;16.10;87.20;;;;;;4166624;28;19932;-67
2023/03/31 12:46:17;;;;;;;;;;;16.20;88.20;;;;;;4165382;28;20284;-67
2023/03/31 12:49:09;;;;;;;;;;;16.10;87.30;;;;;;4159965;28;19998;-67
2023/03/31 12:52:00;;;;;;;;;;;16.20;87.40;;;;;;4161012;28;20073;-67
2023/03/31 12:54:56;;;;;;;;;;;16.20;87.40;;;;;;4167964;28;20025;-66
2023/03/31 12:57:40;;;;;;;;;;;16.20;87.30;;;;;;4182989;28;19932;-67
2023/03/31 13:00:22;;;;;;;;;;;16.20;87.30;;;;;;4153006;28;20481;-66
2023/03/31 13:03:21;;;;;;;;;;;16.20;87.40;;;;;;4178700;28;20284;-66
2023/03/31 13:06:03;;;;;;;;;;;16.20;87.40;;;;;;4179534;28;19949;-66
2023/03/31 13:08:56;;;;;;;;;;;16.20;87.30;;;;;;4200174;28;20307;-67
2023/03/31 13:11:38;;;;;;;;;;;16.20;87.30;;;;;;4193967;28;20431;-67
2023/03/31 13:14:20;;;;;;;;;;;16.20;87.30;;;;;;4193242;28;19977;-68
2023/03/31 13:17:12;;;;;;;;;;;16.20;87.30;;;;;;4185148;28;20286;-68
2023/03/31 13:19:53;;;;;;;;;;;16.20;87.20;;;;;;4177697;28;19997;-66
2023/03/31 13:22:35;;;;;;;;;;;16.20;87.10;;;;;;4177211;28;20386;-66
2023/03/31 13:25:46;;;;;;;;;;;16.30;87.20;;;;;;4176960;28;19936;-69
2023/03/31 13:28:41;;;;;;;;;;;16.30;87.00;;;;;;4182027;28;20002;-67
2023/03/31 13:31:44;;;;;;;;;;;16.30;87.80;;;;;;4194411;28;20371;-67
2023/03/31 13:34:25;;;;;;;;;;;16.30;86.80;;;;;;4190423;28;19947;-67
2023/03/31 13:37:16;;;;;;;;;;;16.30;86.70;;;;;;4167827;28;20379;-67
2023/03/31 13:40:07;;;;;;;;;;;16.30;86.60;;;;;;4184538;28;19983;-66
2023/03/31 13:42:57;;;;;;;;;;;16.40;86.50;;;;;;4171137;28;20009;-64
2023/03/31 13:45:54;;;;;;;;;;;16.30;86.40;;;;;;4132859;28;20006;-67
2023/03/31 13:48:40;;;;;;;;;;;16.40;86.40;;;;;;4178755;28;19936;-67
2023/03/31 13:51:35;;;;;;;;;;;16.30;86.40;;;;;;4176821;28;20529;-67
2023/03/31 13:54:30;;;;;;;;;;;16.40;87.30;;;;;;4185158;28;19973;-68
2023/03/31 13:57:29;;;;;;;;;;;16.40;86.40;;;;;;4193785;28;19935;-67
2023/03/31 14:00:18;;;;;;;;;;;16.40;86.50;;;;;;4193303;28;19951;-67
2023/03/31 14:03:12;;;;;;;;;;;16.40;86.50;;;;;;4180708;28;19959;-67
2023/03/31 14:05:57;;;;;;;;;;;16.40;86.60;;;;;;4176078;28;20531;-66
2023/03/31 14:08:42;;;;;;;;;;;16.30;86.60;;;;;;4163946;28;19935;-68
2023/03/31 14:11:23;;;;;;;;;;;16.30;86.70;;;;;;4176913;28;20035;-71
2023/03/31 14:14:06;;;;;;;;;;;16.30;87.60;;;;;;4161453;28;19932;-69
2023/03/31 14:16:48;;;;;;;;;;;16.30;86.80;;;;;;4176103;28;19935;-70
2023/03/31 14:19:37;;;;;;;;;;;16.30;86.80;;;;;;4175194;28;19956;-67
2023/03/31 14:22:26;;;;;;;;;;;16.30;86.90;;;;;;4183665;28;19935;-67
2023/03/31 14:25:14;;;;;;;;;;;16.20;86.90;;;;;;4192438;28;19940;-67
2023/03/31 14:28:01;;;;;;;;;;;16.20;87.90;;;;;;4174930;28;19962;-67
2023/03/31 14:30:45;;;;;;;;;;;16.20;87.10;;;;;;4175400;28;19971;-70
2023/03/31 14:33:33;;;;;;;;;;;16.20;87.10;;;;;;4176562;28;19944;-73
2023/03/31 14:36:18;;;;;;;;;;;16.20;87.20;;;;;;4176375;28;19931;-67
2023/03/31 14:39:04;;;;;;;;;;;16.10;87.20;;;;;;4176528;28;19936;-74
2023/03/31 14:41:48;;;;;;;;;;;16.10;87.20;;;;;;4175903;28;19935;-74
2023/03/31 14:44:29;;;;;;;;;;;16.10;87.40;;;;;;4175402;28;19931;-75
2023/03/31 14:47:14;;;;;;;;;;;16.10;87.40;;;;;;4175986;28;19932;-74
2023/03/31 14:50:01;;;;;;;;;;;16.10;87.50;;;;;;4175553;28;20438;-72
2023/03/31 14:52:46;;;;;;;;;;;16.10;88.50;;;;;;4190274;28;20572;-71
2023/03/31 14:55:29;;;;;;;;;;;16.10;87.70;;;;;;4191699;28;19977;-75
2023/03/31 14:58:25;;;;;;;;;;;16.10;87.70;;;;;;4181951;28;20030;-73
2023/03/31 15:01:06;;;;;;;;;;;16.10;87.70;;;;;;4192103;28;19935;-75
2023/03/31 15:03:47;;;;;;;;;;;16.10;87.70;;;;;;4192412;28;19990;-75
2023/03/31 15:06:31;;;;;;;;;;;16.10;87.60;;;;;;4190932;28;19981;-75
2023/03/31 15:09:14;;;;;;;;;;;16.10;87.70;;;;;;4187623;28;20033;-76
2023/03/31 15:11:58;;;;;;;;;;;16.10;87.70;;;;;;4175935;28;19931;-76
2023/03/31 15:14:41;;;;;;;;;;;16.10;87.70;;;;;;4175852;28;19931;-75
2023/03/31 15:17:23;;;;;;;;;;;16.20;87.70;;;;;;4175796;28;19996;-76
2023/03/31 15:20:21;;;;;;;;;;;16.20;87.70;;;;;;4176223;28;20022;-75
2023/03/31 15:23:02;;;;;;;;;;;16.20;87.70;;;;;;4173697;28;19943;-75
2023/03/31 15:25:44;;;;;;;;;;;16.20;87.70;;;;;;4175425;28;20395;-74
2023/03/31 15:28:27;;;;;;;;;;;16.20;87.70;;;;;;4175958;28;19936;-75
2023/03/31 15:31:08;;;;;;;;;;;16.20;87.70;;;;;;4167149;28;19950;-73
2023/03/31 15:33:50;;;;;;;;;;;16.20;87.60;;;;;;4175780;28;19975;-71
2023/03/31 15:36:31;;;;;;;;;;;16.20;87.60;;;;;;4174977;28;19931;-71
2023/03/31 15:39:14;;;;;;;;;;;16.20;87.70;;;;;;4175308;28;19931;-72
2023/03/31 15:41:56;;;;;;;;;;;16.20;87.70;;;;;;4174970;28;20024;-73
2023/03/31 15:44:39;;;;;;;;;;;16.20;87.80;;;;;;4175010;28;19938;-72
2023/03/31 15:47:20;;;;;;;;;;;16.20;87.90;;;;;;4175723;28;19936;-75
2023/03/31 15:50:04;;;;;;;;;;;16.20;87.90;;;;;;4158877;28;19936;-69
2023/03/31 15:52:46;;;;;;;;;;;16.20;88.00;;;;;;4161979;28;20359;-65